createdAt,value
2018-10-05T00:01:14.086Z,75.29
2018-10-05T00:03:42.250Z,75.29
2018-10-05T00:06:10.413Z,76.20
2018-10-05T00:08:38.584Z,76.14
2018-10-05T00:11:06.876Z,75.53
2018-10-05T00:13:35.107Z,76.37
2018-10-05T00:16:03.256Z,76.47
2018-10-05T00:18:31.535Z,76.77
2018-10-05T00:20:59.704Z,76.71
2018-10-05T00:23:27.851Z,76.75
2018-10-05T00:25:56.008Z,77.21
2018-10-05T00:28:24.163Z,77.12
2018-10-05T00:30:52.315Z,77.61
2018-10-05T00:33:20.744Z,77.38
2018-10-05T00:35:48.903Z,77.30
2018-10-05T00:38:17.104Z,77.07
2018-10-05T00:40:45.275Z,77.21
2018-10-05T00:43:13.435Z,76.92
2018-10-05T00:45:41.655Z,76.70
2018-10-05T00:48:09.819Z,76.47
2018-10-05T00:50:38.010Z,76.54
2018-10-05T00:53:06.215Z,76.59
2018-10-05T00:55:34.339Z,76.62
2018-10-05T00:58:02.491Z,76.77
2018-10-05T01:00:30.668Z,75.59
2018-10-05T01:02:58.808Z,75.54
2018-10-05T01:05:26.964Z,76.31
2018-10-05T01:07:55.126Z,75.99
2018-10-05T01:10:23.365Z,75.54
2018-10-05T01:12:51.511Z,75.44
2018-10-05T01:15:19.717Z,75.96
2018-10-05T01:17:47.851Z,75.68
2018-10-05T01:20:16.042Z,76.43
2018-10-05T01:22:44.280Z,75.89
2018-10-05T01:25:12.463Z,76.38
2018-10-05T01:27:40.615Z,75.71
2018-10-05T01:30:12.462Z,75.88
2018-10-05T01:32:42.160Z,75.80
2018-10-05T01:35:10.355Z,76.07
2018-10-05T01:37:39.171Z,75.66
2018-10-05T01:40:07.280Z,76.07
2018-10-05T01:42:35.456Z,76.33
2018-10-05T01:45:03.653Z,76.18
2018-10-05T01:47:31.856Z,75.59
2018-10-05T01:49:59.992Z,76.18
2018-10-05T01:52:28.153Z,75.27
2018-10-05T01:54:56.341Z,75.15
2018-10-05T01:57:24.491Z,75.04
2018-10-05T01:59:52.696Z,75.77
2018-10-05T02:02:27.460Z,75.43
2018-10-05T02:04:55.604Z,75.56
2018-10-05T02:07:23.764Z,75.44
2018-10-05T02:09:51.910Z,75.41
2018-10-05T02:12:20.048Z,75.39
2018-10-05T02:14:48.195Z,75.23
2018-10-05T02:17:16.343Z,74.37
2018-10-05T02:19:44.535Z,75.40
2018-10-05T02:22:12.708Z,74.84
2018-10-05T02:24:40.859Z,74.92
2018-10-05T02:27:08.983Z,74.15
2018-10-05T02:29:37.240Z,73.88
2018-10-05T02:32:05.422Z,74.89
2018-10-05T02:34:33.594Z,74.28
2018-10-05T02:37:01.748Z,74.80
2018-10-05T02:39:29.891Z,74.47
2018-10-05T02:41:58.070Z,74.00
2018-10-05T02:44:26.228Z,74.20
2018-10-05T02:46:54.386Z,74.76
2018-10-05T02:49:22.537Z,75.07
2018-10-05T02:51:50.706Z,75.06
2018-10-05T02:54:18.843Z,74.30
2018-10-05T02:56:47.034Z,74.73
2018-10-05T02:59:15.197Z,75.08
2018-10-05T03:01:54.780Z,74.55
2018-10-05T03:04:22.935Z,74.37
2018-10-05T03:06:51.111Z,74.57
2018-10-05T03:09:19.246Z,75.31
2018-10-05T03:11:47.427Z,75.03
2018-10-05T03:14:15.595Z,75.11
2018-10-05T03:16:43.781Z,75.41
2018-10-05T03:19:11.976Z,75.25
2018-10-05T03:21:40.111Z,75.53
2018-10-05T03:24:08.267Z,74.61
2018-10-05T03:26:36.427Z,75.29
2018-10-05T03:29:04.579Z,75.10
2018-10-05T03:31:32.744Z,74.46
2018-10-05T03:34:00.884Z,75.10
2018-10-05T03:36:29.053Z,75.21
2018-10-05T03:38:57.275Z,75.27
2018-10-05T03:41:25.431Z,76.06
2018-10-05T03:43:53.595Z,75.67
2018-10-05T03:46:21.779Z,75.76
2018-10-05T03:48:50.015Z,75.68
2018-10-05T03:51:18.208Z,76.49
2018-10-05T03:53:46.435Z,76.35
2018-10-05T03:56:14.622Z,75.85
2018-10-05T03:58:47.922Z,76.66
2018-10-05T04:01:16.171Z,76.62
2018-10-05T04:03:44.363Z,75.84
2018-10-05T04:06:12.520Z,75.68
2018-10-05T04:08:40.659Z,75.68
2018-10-05T04:11:08.832Z,76.24
2018-10-05T04:13:37.088Z,75.58
2018-10-05T04:16:05.272Z,76.16
2018-10-05T04:18:33.452Z,75.25
2018-10-05T04:21:01.960Z,75.55
2018-10-05T04:23:30.117Z,74.98
2018-10-05T04:25:58.337Z,74.99
2018-10-05T04:28:26.491Z,75.11
2018-10-05T04:30:54.662Z,75.58
2018-10-05T04:33:22.839Z,74.95
2018-10-05T04:35:51.038Z,75.51
2018-10-05T04:38:19.234Z,75.85
2018-10-05T04:40:47.426Z,75.97
2018-10-05T04:43:15.572Z,75.26
2018-10-05T04:45:43.744Z,75.95
2018-10-05T04:48:11.934Z,75.74
2018-10-05T04:50:40.082Z,75.95
2018-10-05T04:53:08.284Z,76.19
2018-10-05T04:55:36.451Z,75.67
2018-10-05T04:58:04.674Z,76.21
2018-10-05T05:00:32.880Z,75.65
2018-10-05T05:03:01.079Z,75.63
2018-10-05T05:05:29.901Z,76.26
2018-10-05T05:07:58.063Z,75.48
2018-10-05T05:10:26.290Z,75.90
2018-10-05T05:12:54.525Z,76.32
2018-10-05T05:15:22.771Z,75.69
2018-10-05T05:17:51.041Z,75.83
2018-10-05T05:20:19.198Z,75.87
2018-10-05T05:22:47.368Z,75.44
2018-10-05T05:25:15.525Z,75.65
2018-10-05T05:27:43.726Z,76.18
2018-10-05T05:30:11.895Z,75.62
2018-10-05T05:32:40.064Z,75.74
2018-10-05T05:35:08.319Z,76.44
2018-10-05T05:37:36.527Z,75.44
2018-10-05T05:40:04.883Z,75.92
2018-10-05T05:42:33.011Z,76.06
2018-10-05T05:45:01.192Z,76.04
2018-10-05T05:47:29.378Z,76.04
2018-10-05T05:49:57.586Z,75.31
2018-10-05T05:52:25.768Z,75.47
2018-10-05T05:54:53.950Z,76.03
2018-10-05T05:57:22.154Z,76.17
2018-10-05T05:59:50.310Z,76.05
2018-10-05T06:02:18.527Z,75.79
2018-10-05T06:04:46.695Z,75.91
2018-10-05T06:07:14.889Z,75.63
2018-10-05T06:09:43.066Z,76.30
2018-10-05T06:12:11.316Z,76.69
2018-10-05T06:14:39.527Z,75.83
2018-10-05T06:17:07.752Z,76.08
2018-10-05T06:19:35.924Z,75.87
2018-10-05T06:22:04.125Z,76.42
2018-10-05T06:24:32.288Z,76.62
2018-10-05T06:27:00.496Z,75.92
2018-10-05T06:29:28.756Z,76.12
2018-10-05T06:31:56.920Z,76.21
2018-10-05T06:34:25.099Z,76.33
2018-10-05T06:36:53.323Z,76.01
2018-10-05T06:39:21.603Z,76.51
2018-10-05T06:41:49.785Z,76.37
2018-10-05T06:44:17.939Z,76.77
2018-10-05T06:46:46.147Z,76.24
2018-10-05T06:49:14.417Z,75.92
2018-10-05T06:51:42.603Z,76.25
2018-10-05T06:54:10.743Z,75.28
2018-10-05T06:56:39.041Z,75.83
2018-10-05T06:59:07.286Z,75.20
2018-10-05T07:01:35.620Z,74.80
2018-10-05T07:04:03.678Z,75.91
2018-10-05T07:06:31.847Z,75.14
2018-10-05T07:09:00.031Z,75.55
2018-10-05T07:11:28.286Z,74.94
2018-10-05T07:13:56.369Z,75.05
2018-10-05T07:16:24.597Z,74.73
2018-10-05T07:18:52.748Z,74.75
2018-10-05T07:21:20.950Z,75.60
2018-10-05T07:23:49.167Z,74.71
2018-10-05T07:26:17.383Z,74.59
2018-10-05T07:28:45.661Z,75.10
2018-10-05T07:31:13.727Z,74.40
2018-10-05T07:33:41.896Z,75.21
2018-10-05T07:36:10.135Z,75.27
2018-10-05T07:38:38.302Z,74.84
2018-10-05T07:41:06.790Z,73.91
2018-10-05T07:43:34.993Z,73.75
2018-10-05T07:46:03.236Z,73.37
2018-10-05T07:48:31.427Z,73.38
2018-10-05T07:50:59.675Z,72.81
2018-10-05T07:53:27.857Z,73.46
2018-10-05T07:55:57.010Z,73.35
2018-10-05T07:58:25.248Z,73.06
2018-10-05T08:00:53.444Z,72.59
2018-10-05T08:03:21.676Z,72.40
2018-10-05T08:05:49.911Z,72.39
2018-10-05T08:08:18.182Z,72.39
2018-10-05T08:10:47.336Z,72.75
2018-10-05T08:13:16.707Z,71.97
2018-10-05T08:15:44.962Z,71.97
2018-10-05T08:18:13.124Z,71.36
2018-10-05T08:20:41.363Z,71.40
2018-10-05T08:23:09.558Z,71.15
2018-10-05T08:25:37.759Z,71.29
2018-10-05T08:28:05.955Z,70.90
2018-10-05T08:30:34.200Z,71.21
2018-10-05T08:33:02.352Z,70.36
2018-10-05T08:35:30.509Z,70.76
2018-10-05T08:37:58.695Z,69.84
2018-10-05T08:40:26.886Z,69.24
2018-10-05T08:42:55.044Z,69.25
2018-10-05T08:45:23.244Z,69.26
2018-10-05T08:47:51.398Z,69.29
2018-10-05T08:50:19.551Z,70.25
2018-10-05T08:52:47.754Z,69.66
2018-10-05T08:55:15.934Z,69.42
2018-10-05T08:57:44.182Z,69.48
2018-10-05T09:00:12.456Z,68.50
2018-10-05T09:02:40.530Z,68.66
2018-10-05T09:05:08.946Z,69.02
2018-10-05T09:07:37.162Z,69.03
2018-10-05T09:10:05.441Z,69.34
2018-10-05T09:12:33.604Z,69.58
2018-10-05T09:15:01.818Z,69.85
2018-10-05T09:17:30.128Z,69.76
2018-10-05T09:19:58.372Z,68.57
2018-10-05T09:22:26.582Z,69.03
2018-10-05T09:24:55.146Z,68.42
2018-10-05T09:27:23.328Z,68.00
2018-10-05T09:29:51.656Z,67.25
2018-10-05T09:32:20.011Z,67.25
2018-10-05T09:34:48.218Z,67.17
2018-10-05T09:37:16.414Z,66.25
2018-10-05T09:39:44.587Z,66.54
2018-10-05T09:42:12.799Z,66.94
2018-10-05T09:44:41.111Z,65.79
2018-10-05T09:47:09.225Z,65.36
2018-10-05T09:49:37.443Z,66.03
2018-10-05T09:52:05.642Z,65.61
2018-10-05T09:54:33.912Z,65.24
2018-10-05T09:57:02.123Z,64.12
2018-10-05T09:59:30.316Z,63.72
2018-10-05T10:02:03.711Z,63.68
2018-10-05T10:04:31.979Z,62.99
2018-10-05T10:07:00.229Z,62.70
2018-10-05T10:09:28.424Z,62.70
2018-10-05T10:11:56.618Z,62.04
2018-10-05T10:14:24.815Z,61.86
2018-10-05T10:16:52.991Z,62.19
2018-10-05T10:19:21.179Z,62.13
2018-10-05T10:21:49.425Z,62.10
2018-10-05T10:24:17.532Z,59.66
2018-10-05T10:26:45.743Z,60.42
2018-10-05T10:29:14.029Z,59.73
2018-10-05T10:31:42.199Z,59.07
2018-10-05T10:34:10.376Z,57.91
2018-10-05T10:36:38.513Z,56.79
2018-10-05T10:39:07.814Z,57.04
2018-10-05T10:41:36.051Z,56.31
2018-10-05T10:44:04.270Z,56.80
2018-10-05T10:46:32.506Z,57.21
2018-10-05T10:49:00.721Z,55.75
2018-10-05T10:51:28.921Z,55.08
2018-10-05T10:53:57.136Z,55.90
2018-10-05T10:56:25.768Z,54.31
2018-10-05T10:58:53.924Z,55.32
2018-10-05T11:01:22.080Z,54.42
2018-10-05T11:03:50.276Z,52.91
2018-10-05T11:06:18.875Z,53.72
2018-10-05T11:08:47.087Z,52.97
2018-10-05T11:11:15.260Z,53.13
2018-10-05T11:13:43.462Z,52.95
2018-10-05T11:16:11.650Z,50.92
2018-10-05T11:18:39.838Z,50.42
2018-10-05T11:21:08.095Z,51.19
2018-10-05T11:23:36.288Z,51.39
2018-10-05T11:26:04.465Z,50.93
2018-10-05T11:28:32.696Z,51.64
2018-10-05T11:31:00.943Z,51.20
2018-10-05T11:33:29.274Z,50.79
2018-10-05T11:35:57.473Z,49.21
2018-10-05T11:38:25.695Z,49.21
2018-10-05T11:40:53.961Z,48.88
2018-10-05T11:43:22.130Z,49.16
2018-10-05T11:45:50.372Z,47.51
2018-10-05T11:48:18.597Z,47.59
2018-10-05T11:50:46.794Z,48.03
2018-10-05T11:53:14.994Z,47.61
2018-10-05T11:55:43.238Z,47.87
2018-10-05T11:58:11.455Z,47.34
2018-10-05T12:00:39.725Z,47.32
2018-10-05T12:03:07.898Z,49.05
2018-10-05T12:05:36.122Z,49.97
2018-10-05T12:08:04.387Z,47.86
2018-10-05T12:10:32.614Z,49.07
2018-10-05T12:13:01.148Z,47.99
2018-10-05T12:15:29.317Z,48.06
2018-10-05T12:17:57.495Z,48.12
2018-10-05T12:20:25.674Z,49.61
2018-10-05T12:22:53.957Z,48.98
2018-10-05T12:25:22.180Z,48.83
2018-10-05T12:27:50.355Z,49.21
2018-10-05T12:30:18.523Z,48.04
2018-10-05T12:32:46.723Z,47.89
2018-10-05T12:35:14.919Z,46.46
2018-10-05T12:37:43.141Z,46.56
2018-10-05T12:40:11.435Z,45.61
2018-10-05T12:42:39.652Z,45.04
2018-10-05T12:45:07.862Z,43.59
2018-10-05T12:47:36.107Z,40.09
2018-10-05T12:50:04.434Z,40.06
2018-10-05T12:52:32.604Z,40.51
2018-10-05T12:55:00.791Z,40.83
2018-10-05T12:57:29.104Z,40.98
2018-10-05T12:59:57.339Z,39.86
2018-10-05T13:02:25.513Z,40.65
2018-10-05T13:04:53.714Z,41.76
2018-10-05T13:07:21.929Z,40.35
2018-10-05T13:09:50.171Z,41.62
2018-10-05T13:12:18.400Z,42.63
2018-10-05T13:14:46.592Z,43.53
2018-10-05T13:17:14.759Z,43.92
2018-10-05T13:19:43.131Z,43.94
2018-10-05T13:22:11.354Z,44.21
2018-10-05T13:24:39.631Z,43.65
2018-10-05T13:27:07.834Z,43.90
2018-10-05T13:29:35.978Z,44.34
2018-10-05T13:32:04.127Z,45.68
2018-10-05T13:34:32.331Z,44.24
2018-10-05T13:37:00.611Z,45.36
2018-10-05T13:39:28.791Z,45.07
2018-10-05T13:41:57.064Z,45.41
2018-10-05T13:44:25.159Z,44.23
2018-10-05T13:46:53.407Z,45.02
2018-10-05T13:49:21.579Z,45.60
2018-10-05T13:51:49.763Z,44.99
2018-10-05T13:54:17.969Z,46.06
2018-10-05T13:56:46.208Z,44.09
2018-10-05T13:59:14.391Z,45.51
2018-10-05T14:01:43.974Z,44.65
2018-10-05T14:04:12.240Z,46.02
2018-10-05T14:06:40.455Z,45.25
2018-10-05T14:09:09.864Z,45.68
2018-10-05T14:11:38.136Z,44.01
2018-10-05T14:14:06.614Z,44.32
2018-10-05T14:16:34.955Z,45.92
2018-10-05T14:19:03.232Z,44.43
2018-10-05T14:21:31.751Z,44.02
2018-10-05T14:23:59.992Z,43.13
2018-10-05T14:26:28.163Z,44.31
2018-10-05T14:28:56.392Z,43.84
2018-10-05T14:31:24.614Z,43.98
2018-10-05T14:33:52.885Z,45.10
2018-10-05T14:36:21.186Z,44.30
2018-10-05T14:38:49.897Z,44.54
2018-10-05T14:41:18.095Z,43.72
2018-10-05T14:43:46.303Z,45.10
2018-10-05T14:46:14.539Z,44.55
2018-10-05T14:48:42.707Z,45.45
2018-10-05T14:51:10.884Z,45.74
2018-10-05T14:53:39.047Z,47.10
2018-10-05T14:56:07.232Z,48.36
2018-10-05T14:58:35.467Z,49.22
2018-10-05T15:01:03.705Z,48.41
2018-10-05T15:03:31.898Z,49.12
2018-10-05T15:06:00.103Z,47.97
2018-10-05T15:08:28.519Z,49.12
2018-10-05T15:10:56.686Z,49.05
2018-10-05T15:13:24.968Z,49.74
2018-10-05T15:15:53.206Z,49.91
2018-10-05T15:18:21.575Z,49.98
2018-10-05T15:20:49.771Z,49.77
2018-10-05T15:23:18.070Z,49.33
2018-10-05T15:25:46.306Z,49.79
2018-10-05T15:28:14.547Z,50.90
2018-10-05T15:30:42.714Z,50.11
2018-10-05T15:33:10.887Z,49.82
2018-10-05T15:35:39.061Z,50.81
2018-10-05T15:38:07.264Z,51.17
2018-10-05T15:40:35.459Z,51.36
2018-10-05T15:43:03.636Z,50.78
2018-10-05T15:45:31.818Z,52.07
2018-10-05T15:47:59.991Z,51.50
2018-10-05T15:50:28.183Z,51.98
2018-10-05T15:52:56.449Z,52.11
2018-10-05T15:55:24.607Z,52.61
2018-10-05T15:57:52.827Z,51.80
2018-10-05T16:00:21.043Z,51.84
2018-10-05T16:02:49.260Z,52.59
2018-10-05T16:05:17.497Z,52.63
2018-10-05T16:07:45.684Z,53.57
2018-10-05T16:10:13.843Z,53.60
2018-10-05T16:12:43.012Z,53.74
2018-10-05T16:15:11.207Z,53.59
2018-10-05T16:17:39.376Z,54.30
2018-10-05T16:20:07.639Z,54.53
2018-10-05T16:22:35.830Z,54.64
2018-10-05T16:25:04.086Z,55.44
2018-10-05T16:27:32.255Z,55.54
2018-10-05T16:30:00.439Z,56.49
2018-10-05T16:32:28.648Z,56.15
2018-10-05T16:34:56.863Z,56.30
2018-10-05T16:37:25.462Z,57.10
2018-10-05T16:39:53.600Z,57.54
2018-10-05T16:42:21.771Z,56.87
2018-10-05T16:44:49.964Z,58.24
2018-10-05T16:47:18.126Z,59.34
2018-10-05T16:49:46.383Z,59.11
2018-10-05T16:52:14.552Z,59.30
2018-10-05T16:54:42.737Z,60.49
2018-10-05T16:57:10.968Z,59.98
2018-10-05T16:59:39.168Z,60.37
2018-10-05T17:02:07.335Z,61.27
2018-10-05T17:04:35.503Z,61.43
2018-10-05T17:07:03.683Z,61.48
2018-10-05T17:09:32.271Z,61.22
2018-10-05T17:12:02.606Z,61.21
2018-10-05T17:14:31.011Z,61.34
2018-10-05T17:16:59.802Z,61.22
2018-10-05T17:19:28.010Z,61.42
2018-10-05T17:21:56.212Z,61.76
2018-10-05T17:24:24.392Z,62.35
2018-10-05T17:26:52.580Z,61.42
2018-10-05T17:29:20.834Z,62.23
2018-10-05T17:31:52.023Z,61.11
2018-10-05T17:34:20.242Z,61.19
2018-10-05T17:36:48.438Z,61.44
2018-10-05T17:39:16.608Z,63.05
2018-10-05T17:41:44.763Z,62.72
2018-10-05T17:44:12.923Z,62.62
2018-10-05T17:46:41.135Z,62.96
2018-10-05T17:49:09.299Z,62.60
2018-10-05T17:51:37.458Z,63.84
2018-10-05T17:54:05.745Z,63.33
2018-10-05T17:56:33.960Z,62.83
2018-10-05T17:59:03.250Z,62.47
2018-10-05T18:01:31.482Z,62.60
2018-10-05T18:03:59.751Z,62.98
2018-10-05T18:06:27.915Z,62.21
2018-10-05T18:08:56.166Z,62.94
2018-10-05T18:11:24.420Z,62.90
2018-10-05T18:13:52.602Z,62.71
2018-10-05T18:16:20.776Z,63.19
2018-10-05T18:18:48.955Z,62.93
2018-10-05T18:21:17.163Z,63.60
2018-10-05T18:23:45.343Z,62.45
2018-10-05T18:26:13.675Z,63.40
2018-10-05T18:28:41.715Z,63.17
2018-10-05T18:31:09.931Z,63.68
2018-10-05T18:33:38.185Z,63.67
2018-10-05T18:36:06.343Z,63.06
2018-10-05T18:38:34.519Z,63.89
2018-10-05T18:41:02.690Z,64.43
2018-10-05T18:43:30.870Z,64.43
2018-10-05T18:45:59.107Z,63.50
2018-10-05T18:48:27.291Z,64.53
2018-10-05T18:50:55.853Z,64.32
2018-10-05T18:53:24.194Z,64.91
2018-10-05T18:55:52.678Z,63.74
2018-10-05T18:58:21.026Z,63.93
2018-10-05T19:00:50.450Z,64.34
2018-10-05T19:03:18.694Z,64.62
2018-10-05T19:05:47.081Z,64.57
2018-10-05T19:08:16.228Z,64.25
2018-10-05T19:10:44.447Z,64.27
2018-10-05T19:13:12.776Z,64.34
2018-10-05T19:15:41.768Z,65.36
2018-10-05T19:18:10.677Z,64.87
2018-10-05T19:20:39.023Z,64.49
2018-10-05T19:23:07.468Z,64.58
2018-10-05T19:25:35.759Z,64.54
2018-10-05T19:28:03.992Z,64.87
2018-10-05T19:30:32.443Z,64.42
2018-10-05T19:33:00.787Z,64.69
2018-10-05T19:35:29.092Z,64.85
2018-10-05T19:37:57.333Z,65.15
2018-10-05T19:40:25.652Z,65.60
2018-10-05T19:42:53.947Z,66.54
2018-10-05T19:45:22.779Z,66.16
2018-10-05T19:47:51.626Z,66.02
2018-10-05T19:50:19.779Z,66.60
2018-10-05T19:52:48.365Z,65.99
2018-10-05T19:55:16.763Z,66.86
2018-10-05T19:57:44.994Z,66.01
2018-10-05T20:00:13.293Z,66.63
2018-10-05T20:02:41.530Z,66.89
2018-10-05T20:05:09.870Z,67.08
2018-10-05T20:07:38.402Z,66.41
2018-10-05T20:10:08.423Z,67.35
2018-10-05T20:12:36.589Z,67.38
2018-10-05T20:15:05.695Z,67.59
2018-10-05T20:17:34.655Z,67.72
2018-10-05T20:20:02.814Z,67.52
2018-10-05T20:22:30.978Z,67.61
2018-10-05T20:24:59.198Z,67.00
2018-10-05T20:27:27.472Z,67.23
2018-10-05T20:29:55.706Z,67.58
2018-10-05T20:32:23.932Z,67.40
2018-10-05T20:34:52.134Z,68.16
2018-10-05T20:37:20.421Z,67.22
2018-10-05T20:39:48.660Z,67.86
2018-10-05T20:42:16.939Z,67.85
2018-10-05T20:44:45.329Z,67.61
2018-10-05T20:47:13.542Z,67.40
2018-10-05T20:49:41.873Z,67.84
2018-10-05T20:52:10.129Z,67.73
2018-10-05T20:54:38.416Z,67.87
2018-10-05T20:57:07.451Z,68.19
2018-10-05T20:59:38.640Z,67.95
2018-10-05T21:02:06.835Z,68.24
2018-10-05T21:04:35.032Z,68.76
2018-10-05T21:07:03.243Z,68.42
2018-10-05T21:09:31.441Z,68.54
2018-10-05T21:11:59.608Z,69.00
2018-10-05T21:14:28.349Z,69.21
2018-10-05T21:16:56.523Z,68.69
2018-10-05T21:19:24.832Z,68.77
2018-10-05T21:21:53.008Z,69.53
2018-10-05T21:24:27.578Z,68.66
2018-10-05T21:26:55.758Z,69.24
2018-10-05T21:29:24.017Z,68.95
2018-10-05T21:31:52.201Z,69.81
2018-10-05T21:34:20.398Z,69.85
2018-10-05T21:36:48.563Z,70.05
2018-10-05T21:39:16.805Z,69.43
2018-10-05T21:41:45.028Z,69.78
2018-10-05T21:44:13.184Z,69.75
2018-10-05T21:46:41.340Z,70.34
2018-10-05T21:49:09.518Z,69.81
2018-10-05T21:51:37.707Z,70.24
2018-10-05T21:54:05.879Z,70.30
2018-10-05T21:56:34.028Z,70.41
2018-10-05T21:59:02.198Z,70.30
2018-10-05T22:01:30.346Z,70.36
2018-10-05T22:03:58.539Z,70.26
2018-10-05T22:06:26.702Z,70.94
2018-10-05T22:08:54.847Z,70.09
2018-10-05T22:11:23.048Z,70.35
2018-10-05T22:13:51.219Z,70.06
2018-10-05T22:16:19.415Z,70.86
2018-10-05T22:18:47.571Z,70.41
2018-10-05T22:21:15.755Z,71.28
2018-10-05T22:23:43.922Z,71.44
2018-10-05T22:26:12.103Z,70.53
2018-10-05T22:28:40.290Z,71.35
2018-10-05T22:31:08.486Z,70.64
2018-10-05T22:33:36.697Z,71.62
2018-10-05T22:36:04.874Z,71.35
2018-10-05T22:38:33.052Z,71.07
2018-10-05T22:41:01.213Z,71.03
2018-10-05T22:43:29.404Z,71.18
2018-10-05T22:45:57.539Z,71.44
2018-10-05T22:48:25.719Z,70.88
2018-10-05T22:50:53.868Z,70.49
2018-10-05T22:53:22.134Z,71.05
2018-10-05T22:55:50.322Z,70.63
2018-10-05T22:58:18.465Z,71.29
2018-10-05T23:00:46.640Z,70.54
2018-10-05T23:03:15.071Z,70.65
2018-10-05T23:05:43.246Z,71.03
2018-10-05T23:08:11.419Z,70.30
2018-10-05T23:10:39.584Z,71.18
2018-10-05T23:13:07.767Z,71.37
2018-10-05T23:15:35.979Z,70.32
2018-10-05T23:18:04.171Z,71.21
2018-10-05T23:20:32.367Z,71.12
2018-10-05T23:23:00.595Z,71.24
2018-10-05T23:25:28.744Z,71.73
2018-10-05T23:27:56.955Z,70.92
2018-10-05T23:30:25.119Z,71.50
2018-10-05T23:32:53.265Z,71.15
2018-10-05T23:35:21.414Z,71.33
2018-10-05T23:37:49.608Z,71.32
2018-10-05T23:40:17.762Z,71.37
2018-10-05T23:42:46.024Z,72.37
2018-10-05T23:45:14.223Z,71.83
2018-10-05T23:47:42.408Z,72.43
2018-10-05T23:50:10.610Z,71.75
2018-10-05T23:52:41.932Z,71.90
2018-10-05T23:55:10.157Z,72.33
2018-10-05T23:57:38.938Z,72.39
